Macatawa, MI (49434)

12:57 PM EDT on July 30, 2016 (GMT -0400)
SpyglassCondos.com | | Change Station

Elev 688 ft 42.78 °N, 86.21 °W | Updated 2 seconds ago

Overcast
Overcast
69.1 °F
Feels Like 69.1 °F
N
1.2
Wind Variable Wind from NNE
Gusts 5.0 mph

Today
High -- | Low -- °F
--% Chance of Precip.
Yesterday
High -- | Low -- °F
Precip. -- in
Pressure 30.01 in
Visibility 10.0 miles
Clouds Mostly Cloudy 1400 ft
Overcast 5000 ft
Dew Point 66 °F
Humidity 90%
Rainfall 0.54 in
Snow Depth Not available.
6:34 AM 9:07 PM
Waning Crescent, 12% visible
METAR KBIV 301653Z AUTO 10006KT 10SM BKN014 OVC050 21/18 A3002 RMK AO2 RAB1559E13 SLP162 P0000 T02110178
Pressure 30.01 in
Visibility 10.0 miles
Clouds Mostly Cloudy 1400 ft
Overcast 5000 ft
Dew Point 66 °F
Humidity 90%
Rainfall 0.54 in
Snow Depth Not available.
6:34 AM 9:07 PM
Waning Crescent, 12% visible
METAR KBIV 301653Z AUTO 10006KT 10SM BKN014 OVC050 21/18 A3002 RMK AO2 RAB1559E13 SLP162 P0000 T02110178

10-Day Weather Forecast

Almanac

Astronomy

Jul. 30, 2016 Rise Set
Actual Time
Civil Twilight
Nautical Twilight
Astronomical Twilight
Moon
Length of Visible Light
Length of Day
Tomorrow will be .
, % of the Moon is Illuminated

Today's Extremes

State Highs State Lows

Community

WunderPhotos

Upload Photos

1,928,597 photos uploaded!

WunderBlog® & News

Nearby

Air Quality

  Air Quality AQ Index Pollutant
Not available.

Snow Depth

Station Depth Elevation

Earthquake Activity

City Distance Mag. Time & Date
Minimum magnitude displayed is 2.5.

Coastal Water Temperatures

Place Temperature

Stations

Nearby Weather Stations

Station Location Temp. Windchill Dew Point Humidity Wind Precip. Elev Updated Type
                   

Watches & Warnings

There are currently no watches in effect.